sensor_id;sensor_type;location;lat;lon;timestamp;pressure;altitude;pressure_sealevel;temperature;humidity
10510;BME280;5303;53.266;10.410;2024-02-26T00:01:45;100178.53;;;2.43;100.00
10510;BME280;5303;53.266;10.410;2024-02-26T00:03:45;100177.19;;;2.41;100.00
10510;BME280;5303;53.266;10.410;2024-02-26T00:05:47;100178.53;;;2.38;100.00
10510;BME280;5303;53.266;10.410;2024-02-26T00:07:47;100177.47;;;2.39;100.00
10510;BME280;5303;53.266;10.410;2024-02-26T00:09:48;100176.34;;;2.40;100.00
10510;BME280;5303;53.266;10.410;2024-02-26T00:11:49;100180.72;;;2.41;100.00
10510;BME280;5303;53.266;10.410;2024-02-26T00:13:49;100179.59;;;2.42;100.00
10510;BME280;5303;53.266;10.410;2024-02-26T00:15:49;100180.19;;;2.44;100.00
10510;BME280;5303;53.266;10.410;2024-02-26T00:17:49;100181.53;;;2.42;100.00
10510;BME280;5303;53.266;10.410;2024-02-26T00:19:50;100180.69;;;2.36;100.00
10510;BME280;5303;53.266;10.410;2024-02-26T00:21:50;100182.06;;;2.34;100.00
10510;BME280;5303;53.266;10.410;2024-02-26T00:23:51;100180.69;;;2.31;100.00
10510;BME280;5303;53.266;10.410;2024-02-26T00:25:51;100178.50;;;2.28;100.00
10510;BME280;5303;53.266;10.410;2024-02-26T00:27:51;100179.59;;;2.22;100.00
10510;BME280;5303;53.266;10.410;2024-02-26T00:29:52;100176.88;;;2.17;100.00
10510;BME280;5303;53.266;10.410;2024-02-26T00:31:52;100177.94;;;2.16;100.00
10510;BME280;5303;53.266;10.410;2024-02-26T00:33:52;100176.31;;;2.10;100.00
10510;BME280;5303;53.266;10.410;2024-02-26T00:35:53;100183.91;;;2.08;100.00
10510;BME280;5303;53.266;10.410;2024-02-26T00:37:53;100178.19;;;2.05;100.00
10510;BME280;5303;53.266;10.410;2024-02-26T00:39:53;100179.00;;;2.05;100.00
10510;BME280;5303;53.266;10.410;2024-02-26T00:41:54;100175.78;;;2.08;100.00
10510;BME280;5303;53.266;10.410;2024-02-26T00:43:54;100177.66;;;2.08;100.00
10510;BME280;5303;53.266;10.410;2024-02-26T00:45:54;100175.19;;;2.06;100.00
10510;BME280;5303;53.266;10.410;2024-02-26T00:47:54;100176.84;;;2.07;100.00
10510;BME280;5303;53.266;10.410;2024-02-26T00:49:55;100173.84;;;2.03;100.00
10510;BME280;5303;53.266;10.410;2024-02-26T00:51:56;100170.88;;;2.05;100.00
10510;BME280;5303;53.266;10.410;2024-02-26T00:53:56;100172.25;;;2.08;100.00
10510;BME280;5303;53.266;10.410;2024-02-26T00:55:57;100173.06;;;2.08;100.00
10510;BME280;5303;53.266;10.410;2024-02-26T00:57:59;100172.25;;;2.08;100.00
10510;BME280;5303;53.266;10.410;2024-02-26T00:59:59;100181.19;;;2.03;100.00
10510;BME280;5303;53.266;10.410;2024-02-26T01:02:00;100176.81;;;2.02;100.00
10510;BME280;5303;53.266;10.410;2024-02-26T01:04:02;100179.84;;;2.06;100.00
10510;BME280;5303;53.266;10.410;2024-02-26T01:06:03;100182.78;;;1.99;100.00
10510;BME280;5303;53.266;10.410;2024-02-26T01:08:04;100182.72;;;1.89;100.00
10510;BME280;5303;53.266;10.410;2024-02-26T01:10:04;100185.69;;;1.82;100.00
10510;BME280;5303;53.266;10.410;2024-02-26T01:12:08;100181.34;;;1.76;100.00
10510;BME280;5303;53.266;10.410;2024-02-26T01:14:08;100185.97;;;1.76;100.00
10510;BME280;5303;53.266;10.410;2024-02-26T01:16:08;100187.03;;;1.75;100.00
10510;BME280;5303;53.266;10.410;2024-02-26T01:18:09;100198.41;;;1.77;100.00
10510;BME280;5303;53.266;10.410;2024-02-26T01:20:09;100192.19;;;1.76;100.00
10510;BME280;5303;53.266;10.410;2024-02-26T01:22:10;100190.03;;;1.78;100.00
10510;BME280;5303;53.266;10.410;2024-02-26T01:24:10;100191.91;;;1.78;100.00
10510;BME280;5303;53.266;10.410;2024-02-26T01:26:10;100186.78;;;1.76;100.00
10510;BME280;5303;53.266;10.410;2024-02-26T01:28:11;100188.38;;;1.72;100.00
10510;BME280;5303;53.266;10.410;2024-02-26T01:30:11;100192.41;;;1.70;100.00
10510;BME280;5303;53.266;10.410;2024-02-26T01:32:11;100194.06;;;1.71;100.00
10510;BME280;5303;53.266;10.410;2024-02-26T01:34:12;100183.53;;;1.74;100.00
10510;BME280;5303;53.266;10.410;2024-02-26T01:36:12;100184.06;;;1.76;100.00
10510;BME280;5303;53.266;10.410;2024-02-26T01:38:12;100182.72;;;1.74;100.00
10510;BME280;5303;53.266;10.410;2024-02-26T01:40:13;100179.97;;;1.69;100.00
10510;BME280;5303;53.266;10.410;2024-02-26T01:42:17;100185.91;;;1.66;100.00
10510;BME280;5303;53.266;10.410;2024-02-26T01:44:18;100178.84;;;1.65;100.00
10510;BME280;5303;53.266;10.410;2024-02-26T01:46:18;100182.94;;;1.62;100.00
10510;BME280;5303;53.266;10.410;2024-02-26T01:48:18;100179.94;;;1.64;100.00
10510;BME280;5303;53.266;10.410;2024-02-26T01:50:19;100186.19;;;1.64;100.00
10510;BME280;5303;53.266;10.410;2024-02-26T01:52:20;100177.25;;;1.64;100.00
10510;BME280;5303;53.266;10.410;2024-02-26T01:54:21;100184.25;;;1.65;100.00
10510;BME280;5303;53.266;10.410;2024-02-26T01:56:22;100189.69;;;1.65;100.00
10510;BME280;5303;53.266;10.410;2024-02-26T01:58:22;100182.38;;;1.65;100.00
10510;BME280;5303;53.266;10.410;2024-02-26T02:00:23;100187.56;;;1.67;100.00
10510;BME280;5303;53.266;10.410;2024-02-26T02:02:24;100189.97;;;1.63;100.00
10510;BME280;5303;53.266;10.410;2024-02-26T02:04:25;100196.72;;;1.61;100.00
10510;BME280;5303;53.266;10.410;2024-02-26T02:06:26;100196.47;;;1.62;100.00
10510;BME280;5303;53.266;10.410;2024-02-26T02:08:27;100190.75;;;1.59;100.00
10510;BME280;5303;53.266;10.410;2024-02-26T02:10:28;100201.06;;;1.62;100.00
10510;BME280;5303;53.266;10.410;2024-02-26T02:12:28;100195.66;;;1.62;100.00
10510;BME280;5303;53.266;10.410;2024-02-26T02:14:28;100196.69;;;1.56;100.00
10510;BME280;5303;53.266;10.410;2024-02-26T02:16:29;100196.09;;;1.44;100.00
10510;BME280;5303;53.266;10.410;2024-02-26T02:18:29;100197.19;;;1.43;100.00
10510;BME280;5303;53.266;10.410;2024-02-26T02:20:33;100195.53;;;1.42;100.00
10510;BME280;5303;53.266;10.410;2024-02-26T02:22:34;100196.09;;;1.44;100.00
10510;BME280;5303;53.266;10.410;2024-02-26T02:24:34;100196.63;;;1.46;100.00
10510;BME280;5303;53.266;10.410;2024-02-26T02:26:34;100197.47;;;1.46;100.00
10510;BME280;5303;53.266;10.410;2024-02-26T02:28:34;100197.75;;;1.50;100.00
10510;BME280;5303;53.266;10.410;2024-02-26T02:30:35;100190.47;;;1.50;100.00
10510;BME280;5303;53.266;10.410;2024-02-26T02:32:37;100190.69;;;1.49;100.00
10510;BME280;5303;53.266;10.410;2024-02-26T02:34:40;100196.66;;;1.51;100.00
10510;BME280;5303;53.266;10.410;2024-02-26T02:36:53;100197.75;;;1.50;100.00
10510;BME280;5303;53.266;10.410;2024-02-26T02:38:54;100202.06;;;1.46;100.00
10510;BME280;5303;53.266;10.410;2024-02-26T02:40:54;100193.09;;;1.40;100.00
10510;BME280;5303;53.266;10.410;2024-02-26T02:42:55;100198.25;;;1.42;100.00
10510;BME280;5303;53.266;10.410;2024-02-26T02:44:55;100195.28;;;1.38;100.00
10510;BME280;5303;53.266;10.410;2024-02-26T02:46:55;100194.97;;;1.34;100.00
10510;BME280;5303;53.266;10.410;2024-02-26T02:48:55;100197.94;;;1.33;100.00
10510;BME280;5303;53.266;10.410;2024-02-26T02:50:56;100192.78;;;1.31;100.00
10510;BME280;5303;53.266;10.410;2024-02-26T02:52:56;100196.56;;;1.30;100.00
10510;BME280;5303;53.266;10.410;2024-02-26T02:54:58;100199.78;;;1.27;100.00
10510;BME280;5303;53.266;10.410;2024-02-26T02:56:58;100195.72;;;1.25;100.00
10510;BME280;5303;53.266;10.410;2024-02-26T02:58:58;100201.94;;;1.25;100.00
10510;BME280;5303;53.266;10.410;2024-02-26T03:00:58;100198.16;;;1.26;100.00
10510;BME280;5303;53.266;10.410;2024-02-26T03:03:00;100199.25;;;1.25;100.00
10510;BME280;5303;53.266;10.410;2024-02-26T03:05:01;100196.22;;;1.22;100.00
10510;BME280;5303;53.266;10.410;2024-02-26T03:07:02;100197.06;;;1.22;100.00
10510;BME280;5303;53.266;10.410;2024-02-26T03:09:02;100198.69;;;1.23;100.00
10510;BME280;5303;53.266;10.410;2024-02-26T03:11:04;100208.16;;;1.21;100.00
10510;BME280;5303;53.266;10.410;2024-02-26T03:13:04;100206.19;;;1.16;100.00
10510;BME280;5303;53.266;10.410;2024-02-26T03:15:04;100207.03;;;1.17;100.00
10510;BME280;5303;53.266;10.410;2024-02-26T03:17:05;100210.56;;;1.17;100.00
10510;BME280;5303;53.266;10.410;2024-02-26T03:19:05;100212.94;;;1.14;100.00
10510;BME280;5303;53.266;10.410;2024-02-26T03:21:06;100218.91;;;1.11;100.00
10510;BME280;5303;53.266;10.410;2024-02-26T03:23:06;100214.56;;;1.10;100.00
10510;BME280;5303;53.266;10.410;2024-02-26T03:25:09;100216.97;;;1.06;100.00
10510;BME280;5303;53.266;10.410;2024-02-26T03:27:10;100219.69;;;1.06;100.00
10510;BME280;5303;53.266;10.410;2024-02-26T03:29:10;100222.38;;;1.06;100.00
10510;BME280;5303;53.266;10.410;2024-02-26T03:31:10;100221.31;;;1.07;100.00
10510;BME280;5303;53.266;10.410;2024-02-26T03:33:11;100228.34;;;1.08;100.00
10510;BME280;5303;53.266;10.410;2024-02-26T03:35:11;100224.56;;;1.09;100.00
10510;BME280;5303;53.266;10.410;2024-02-26T03:37:11;100227.84;;;1.11;100.00
10510;BME280;5303;53.266;10.410;2024-02-26T03:39:12;100233.25;;;1.11;100.00
10510;BME280;5303;53.266;10.410;2024-02-26T03:41:12;100229.97;;;1.09;100.00
10510;BME280;5303;53.266;10.410;2024-02-26T03:43:13;100231.31;;;1.07;100.00
10510;BME280;5303;53.266;10.410;2024-02-26T03:45:13;100235.34;;;1.04;100.00
10510;BME280;5303;53.266;10.410;2024-02-26T03:47:13;100236.44;;;1.03;100.00
10510;BME280;5303;53.266;10.410;2024-02-26T03:49:14;100242.41;;;1.05;100.00
10510;BME280;5303;53.266;10.410;2024-02-26T03:51:14;100243.47;;;1.04;100.00
10510;BME280;5303;53.266;10.410;2024-02-26T03:53:14;100245.94;;;1.06;100.00
10510;BME280;5303;53.266;10.410;2024-02-26T03:55:14;100242.41;;;1.05;100.00
10510;BME280;5303;53.266;10.410;2024-02-26T03:57:15;100250.50;;;1.05;100.00
10510;BME280;5303;53.266;10.410;2024-02-26T03:59:15;100253.22;;;1.05;100.00
10510;BME280;5303;53.266;10.410;2024-02-26T04:01:15;100267.25;;;1.02;100.00
10510;BME280;5303;53.266;10.410;2024-02-26T04:03:16;100264.00;;;1.00;100.00
10510;BME280;5303;53.266;10.410;2024-02-26T04:05:16;100262.38;;;0.99;100.00
10510;BME280;5303;53.266;10.410;2024-02-26T04:07:16;100267.53;;;1.01;100.00
10510;BME280;5303;53.266;10.410;2024-02-26T04:09:16;100273.19;;;0.99;100.00
10510;BME280;5303;53.266;10.410;2024-02-26T04:11:17;100268.31;;;0.96;100.00
10510;BME280;5303;53.266;10.410;2024-02-26T04:13:20;100267.47;;;0.96;100.00
10510;BME280;5303;53.266;10.410;2024-02-26T04:15:20;100268.81;;;0.93;100.00
10510;BME280;5303;53.266;10.410;2024-02-26T04:17:20;100286.69;;;0.94;100.00
10510;BME280;5303;53.266;10.410;2024-02-26T04:19:21;100277.47;;;0.95;100.00
10510;BME280;5303;53.266;10.410;2024-02-26T04:21:21;100284.78;;;0.95;100.00
10510;BME280;5303;53.266;10.410;2024-02-26T04:23:21;100286.09;;;0.92;100.00
10510;BME280;5303;53.266;10.410;2024-02-26T04:25:21;100288.25;;;0.90;100.00
10510;BME280;5303;53.266;10.410;2024-02-26T04:27:22;100284.22;;;0.93;100.00
10510;BME280;5303;53.266;10.410;2024-02-26T04:29:22;100277.97;;;0.92;100.00
10510;BME280;5303;53.266;10.410;2024-02-26T04:31:22;100280.91;;;0.86;100.00
10510;BME280;5303;53.266;10.410;2024-02-26T04:33:22;100283.88;;;0.84;100.00
10510;BME280;5303;53.266;10.410;2024-02-26T04:35:23;100293.31;;;0.82;100.00
10510;BME280;5303;53.266;10.410;2024-02-26T04:37:23;100296.28;;;0.80;100.00
10510;BME280;5303;53.266;10.410;2024-02-26T04:39:24;100302.72;;;0.74;100.00
10510;BME280;5303;53.266;10.410;2024-02-26T04:41:24;100309.13;;;0.68;100.00
10510;BME280;5303;53.266;10.410;2024-02-26T04:43:24;100305.03;;;0.65;100.00
10510;BME280;5303;53.266;10.410;2024-02-26T04:45:24;100312.91;;;0.67;100.00
10510;BME280;5303;53.266;10.410;2024-02-26T04:47:25;100315.69;;;0.72;100.00
10510;BME280;5303;53.266;10.410;2024-02-26T04:49:25;100313.25;;;0.76;100.00
10510;BME280;5303;53.266;10.410;2024-02-26T04:51:25;100324.13;;;0.81;100.00
10510;BME280;5303;53.266;10.410;2024-02-26T04:53:26;100316.34;;;0.84;100.00
10510;BME280;5303;53.266;10.410;2024-02-26T04:55:26;100318.81;;;0.91;100.00
10510;BME280;5303;53.266;10.410;2024-02-26T04:57:26;100319.66;;;0.91;100.00
10510;BME280;5303;53.266;10.410;2024-02-26T04:59:26;100324.47;;;0.84;100.00
10510;BME280;5303;53.266;10.410;2024-02-26T05:01:27;100323.63;;;0.84;100.00
10510;BME280;5303;53.266;10.410;2024-02-26T05:03:27;100331.81;;;0.89;100.00
10510;BME280;5303;53.266;10.410;2024-02-26T05:05:27;100338.09;;;0.94;100.00
10510;BME280;5303;53.266;10.410;2024-02-26T05:07:27;100325.06;;;0.91;100.00
10510;BME280;5303;53.266;10.410;2024-02-26T05:09:28;100334.50;;;0.89;100.00
10510;BME280;5303;53.266;10.410;2024-02-26T05:11:28;100337.75;;;0.91;100.00
10510;BME280;5303;53.266;10.410;2024-02-26T05:13:29;100339.16;;;0.93;100.00
10510;BME280;5303;53.266;10.410;2024-02-26T05:15:29;100337.75;;;0.91;100.00
10510;BME280;5303;53.266;10.410;2024-02-26T05:17:29;100322.41;;;0.96;100.00
10510;BME280;5303;53.266;10.410;2024-02-26T05:19:29;100337.00;;;0.95;100.00
10510;BME280;5303;53.266;10.410;2024-02-26T05:21:30;100339.69;;;0.95;100.00
10510;BME280;5303;53.266;10.410;2024-02-26T05:23:30;100339.66;;;0.90;100.00
10510;BME280;5303;53.266;10.410;2024-02-26T05:25:30;100347.81;;;0.95;100.00
10510;BME280;5303;53.266;10.410;2024-02-26T05:27:31;100347.59;;;0.97;100.00
10510;BME280;5303;53.266;10.410;2024-02-26T05:29:31;100357.06;;;0.99;100.00
10510;BME280;5303;53.266;10.410;2024-02-26T05:31:32;100355.69;;;0.97;100.00
10510;BME280;5303;53.266;10.410;2024-02-26T05:33:32;100353.22;;;0.95;100.00
10510;BME280;5303;53.266;10.410;2024-02-26T05:35:32;100354.25;;;0.89;100.00
10510;BME280;5303;53.266;10.410;2024-02-26T05:37:32;100355.31;;;0.88;100.00
10510;BME280;5303;53.266;10.410;2024-02-26T05:39:33;100345.00;;;0.85;100.00
10510;BME280;5303;53.266;10.410;2024-02-26T05:41:33;100346.88;;;0.80;100.00
10510;BME280;5303;53.266;10.410;2024-02-26T05:43:33;100349.75;;;0.73;100.00
10510;BME280;5303;53.266;10.410;2024-02-26T05:45:34;100360.13;;;0.81;100.00
10510;BME280;5303;53.266;10.410;2024-02-26T05:47:34;100351.78;;;0.88;100.00
10510;BME280;5303;53.266;10.410;2024-02-26T05:49:34;100353.22;;;0.95;100.00
10510;BME280;5303;53.266;10.410;2024-02-26T05:51:35;100354.59;;;0.98;100.00
10510;BME280;5303;53.266;10.410;2024-02-26T05:53:35;100349.56;;;1.06;100.00
10510;BME280;5303;53.266;10.410;2024-02-26T05:55:35;100360.44;;;1.11;100.00
10510;BME280;5303;53.266;10.410;2024-02-26T05:57:36;100356.63;;;1.12;100.00
10510;BME280;5303;53.266;10.410;2024-02-26T05:59:36;100361.22;;;1.12;100.00
10510;BME280;5303;53.266;10.410;2024-02-26T06:01:36;100370.16;;;1.12;100.00
10510;BME280;5303;53.266;10.410;2024-02-26T06:03:37;100374.19;;;1.10;100.00
10510;BME280;5303;53.266;10.410;2024-02-26T06:05:37;100372.81;;;1.07;100.00
10510;BME280;5303;53.266;10.410;2024-02-26T06:07:37;100374.47;;;1.08;100.00
10510;BME280;5303;53.266;10.410;2024-02-26T06:09:37;100376.34;;;1.08;100.00
10510;BME280;5303;53.266;10.410;2024-02-26T06:11:38;100379.88;;;1.08;100.00
10510;BME280;5303;53.266;10.410;2024-02-26T06:13:38;100371.50;;;1.10;100.00
10510;BME280;5303;53.266;10.410;2024-02-26T06:15:39;100383.97;;;1.11;100.00
10510;BME280;5303;53.266;10.410;2024-02-26T06:17:40;100381.00;;;1.12;100.00
10510;BME280;5303;53.266;10.410;2024-02-26T06:19:40;100382.09;;;1.16;100.00
10510;BME280;5303;53.266;10.410;2024-02-26T06:21:40;100384.84;;;1.21;100.00
10510;BME280;5303;53.266;10.410;2024-02-26T06:23:40;100383.75;;;1.17;100.00
10510;BME280;5303;53.266;10.410;2024-02-26T06:25:41;100384.84;;;1.21;100.00
10510;BME280;5303;53.266;10.410;2024-02-26T06:27:42;100386.00;;;1.25;100.00
10510;BME280;5303;53.266;10.410;2024-02-26T06:29:43;100391.69;;;1.29;100.00
10510;BME280;5303;53.266;10.410;2024-02-26T06:31:43;100386.50;;;1.22;100.00
10510;BME280;5303;53.266;10.410;2024-02-26T06:33:43;100396.88;;;1.30;100.00
10510;BME280;5303;53.266;10.410;2024-02-26T06:35:43;100398.25;;;1.33;100.00
10510;BME280;5303;53.266;10.410;2024-02-26T06:37:44;100392.31;;;1.36;100.00
10510;BME280;5303;53.266;10.410;2024-02-26T06:39:44;100388.81;;;1.36;100.00
10510;BME280;5303;53.266;10.410;2024-02-26T06:41:44;100389.63;;;1.41;100.00
10510;BME280;5303;53.266;10.410;2024-02-26T06:43:46;100388.88;;;1.46;100.00
10510;BME280;5303;53.266;10.410;2024-02-26T06:45:47;100398.59;;;1.42;100.00
10510;BME280;5303;53.266;10.410;2024-02-26T06:47:47;100388.81;;;1.41;100.00
10510;BME280;5303;53.266;10.410;2024-02-26T06:49:47;100390.47;;;1.42;100.00
10510;BME280;5303;53.266;10.410;2024-02-26T06:51:47;100402.34;;;1.41;100.00
10510;BME280;5303;53.266;10.410;2024-02-26T06:53:49;100396.94;;;1.41;100.00
10510;BME280;5303;53.266;10.410;2024-02-26T06:55:49;100397.56;;;1.48;100.00
10510;BME280;5303;53.266;10.410;2024-02-26T06:57:50;100407.63;;;1.52;100.00
10510;BME280;5303;53.266;10.410;2024-02-26T06:59:50;100398.41;;;1.53;100.00
10510;BME280;5303;53.266;10.410;2024-02-26T07:01:50;100402.75;;;1.54;100.00
10510;BME280;5303;53.266;10.410;2024-02-26T07:03:51;100405.25;;;1.61;100.00
10510;BME280;5303;53.266;10.410;2024-02-26T07:05:51;100408.22;;;1.59;100.00
10510;BME280;5303;53.266;10.410;2024-02-26T07:07:51;100421.25;;;1.67;100.00
10510;BME280;5303;53.266;10.410;2024-02-26T07:09:52;100414.28;;;1.71;100.00
10510;BME280;5303;53.266;10.410;2024-02-26T07:11:52;100416.72;;;1.73;100.00
10510;BME280;5303;53.266;10.410;2024-02-26T07:13:52;100422.72;;;1.80;100.00
10510;BME280;5303;53.266;10.410;2024-02-26T07:15:53;100423.31;;;1.87;100.00
10510;BME280;5303;53.266;10.410;2024-02-26T07:17:53;100424.19;;;1.92;100.00
10510;BME280;5303;53.266;10.410;2024-02-26T07:19:53;100428.56;;;1.98;100.00
10510;BME280;5303;53.266;10.410;2024-02-26T07:21:53;100431.56;;;2.02;100.00
10510;BME280;5303;53.266;10.410;2024-02-26T07:23:54;100435.38;;;2.06;100.00
10510;BME280;5303;53.266;10.410;2024-02-26T07:25:54;100445.22;;;2.17;100.00
10510;BME280;5303;53.266;10.410;2024-02-26T07:27:54;100436.31;;;2.22;100.00
10510;BME280;5303;53.266;10.410;2024-02-26T07:29:54;100436.03;;;2.23;100.00
10510;BME280;5303;53.266;10.410;2024-02-26T07:31:55;100438.19;;;2.21;100.00
10510;BME280;5303;53.266;10.410;2024-02-26T07:33:56;100438.94;;;2.12;100.00
10510;BME280;5303;53.266;10.410;2024-02-26T07:35:56;100441.94;;;2.10;100.00
10510;BME280;5303;53.266;10.410;2024-02-26T07:37:56;100445.47;;;2.16;100.00
10510;BME280;5303;53.266;10.410;2024-02-26T07:39:56;100446.88;;;2.23;100.00
10510;BME280;5303;53.266;10.410;2024-02-26T07:41:57;100447.47;;;2.30;100.00
10510;BME280;5303;53.266;10.410;2024-02-26T07:43:57;100450.16;;;2.30;100.00
10510;BME280;5303;53.266;10.410;2024-02-26T07:45:58;100451.25;;;2.29;100.00
10510;BME280;5303;53.266;10.410;2024-02-26T07:47:58;100455.94;;;2.39;100.00
10510;BME280;5303;53.266;10.410;2024-02-26T07:49:58;100469.16;;;2.30;100.00
10510;BME280;5303;53.266;10.410;2024-02-26T07:51:58;100469.69;;;2.27;100.00
10510;BME280;5303;53.266;10.410;2024-02-26T07:53:59;100474.38;;;2.37;100.00
10510;BME280;5303;53.266;10.410;2024-02-26T07:55:59;100470.88;;;2.41;100.00
10510;BME280;5303;53.266;10.410;2024-02-26T07:57:59;100470.91;;;2.46;100.00
10510;BME280;5303;53.266;10.410;2024-02-26T08:00:00;100477.38;;;2.45;100.00
10510;BME280;5303;53.266;10.410;2024-02-26T08:02:00;100474.69;;;2.50;100.00
10510;BME280;5303;53.266;10.410;2024-02-26T08:04:03;100487.81;;;2.63;100.00
10510;BME280;5303;53.266;10.410;2024-02-26T08:06:03;100482.41;;;2.68;100.00
10510;BME280;5303;53.266;10.410;2024-02-26T08:08:04;100484.34;;;2.73;100.00
10510;BME280;5303;53.266;10.410;2024-02-26T08:10:04;100493.31;;;2.84;100.00
10510;BME280;5303;53.266;10.410;2024-02-26T08:12:05;100493.03;;;2.80;100.00
10510;BME280;5303;53.266;10.410;2024-02-26T08:14:05;100491.97;;;2.86;100.00
10510;BME280;5303;53.266;10.410;2024-02-26T08:16:06;100494.66;;;2.81;100.00
10510;BME280;5303;53.266;10.410;2024-02-26T08:18:06;100496.63;;;2.96;100.00
10510;BME280;5303;53.266;10.410;2024-02-26T08:20:07;100496.59;;;2.91;100.00
10510;BME280;5303;53.266;10.410;2024-02-26T08:22:07;100502.91;;;3.01;100.00
10510;BME280;5303;53.266;10.410;2024-02-26T08:24:07;100501.50;;;2.94;100.00
10510;BME280;5303;53.266;10.410;2024-02-26T08:26:07;100503.41;;;2.88;100.00
10510;BME280;5303;53.266;10.410;2024-02-26T08:28:10;100513.66;;;2.81;100.00
10510;BME280;5303;53.266;10.410;2024-02-26T08:30:15;100507.41;;;2.76;100.00
10510;BME280;5303;53.266;10.410;2024-02-26T08:32:17;100509.56;;;2.79;100.00
10510;BME280;5303;53.266;10.410;2024-02-26T08:34:17;100504.97;;;2.79;100.00
10510;BME280;5303;53.266;10.410;2024-02-26T08:36:17;100506.91;;;2.89;100.00
10510;BME280;5303;53.266;10.410;2024-02-26T08:38:17;100504.72;;;2.81;100.00
10510;BME280;5303;53.266;10.410;2024-02-26T08:40:17;100503.91;;;2.80;100.00
10510;BME280;5303;53.266;10.410;2024-02-26T08:42:19;100504.16;;;2.84;100.00
10510;BME280;5303;53.266;10.410;2024-02-26T08:44:19;100500.66;;;2.83;100.00
10510;BME280;5303;53.266;10.410;2024-02-26T08:46:20;100511.22;;;2.80;100.00
10510;BME280;5303;53.266;10.410;2024-02-26T08:48:20;100508.22;;;2.81;100.00
10510;BME280;5303;53.266;10.410;2024-02-26T08:50:20;100507.72;;;2.89;100.00
10510;BME280;5303;53.266;10.410;2024-02-26T08:52:21;100511.22;;;2.80;100.00
10510;BME280;5303;53.266;10.410;2024-02-26T08:54:21;100507.72;;;2.84;100.00
10510;BME280;5303;53.266;10.410;2024-02-26T08:56:22;100510.53;;;3.09;100.00
10510;BME280;5303;53.266;10.410;2024-02-26T08:58:22;100507.31;;;3.12;100.00
10510;BME280;5303;53.266;10.410;2024-02-26T09:00:22;100508.63;;;3.05;100.00
10510;BME280;5303;53.266;10.410;2024-02-26T09:02:22;100509.66;;;2.99;100.00
10510;BME280;5303;53.266;10.410;2024-02-26T09:04:23;100512.16;;;3.10;100.00
10510;BME280;5303;53.266;10.410;2024-02-26T09:06:23;100517.09;;;3.23;100.00
10510;BME280;5303;53.266;10.410;2024-02-26T09:08:23;100517.38;;;3.22;100.00
10510;BME280;5303;53.266;10.410;2024-02-26T09:10:23;100520.06;;;3.12;100.00
10510;BME280;5303;53.266;10.410;2024-02-26T09:12:24;100514.88;;;3.10;100.00
10510;BME280;5303;53.266;10.410;2024-02-26T09:14:24;100523.84;;;3.11;100.00
10510;BME280;5303;53.266;10.410;2024-02-26T09:16:24;100522.22;;;3.15;100.00
10510;BME280;5303;53.266;10.410;2024-02-26T09:18:24;100526.09;;;3.29;100.00
10510;BME280;5303;53.266;10.410;2024-02-26T09:20:25;100519.06;;;3.38;100.00
10510;BME280;5303;53.266;10.410;2024-02-26T09:22:25;100513.53;;;3.18;100.00
10510;BME280;5303;53.266;10.410;2024-02-26T09:24:26;100524.38;;;3.13;100.00
10510;BME280;5303;53.266;10.410;2024-02-26T09:26:26;100525.78;;;3.20;100.00
10510;BME280;5303;53.266;10.410;2024-02-26T09:28:27;100523.94;;;3.31;100.00
10510;BME280;5303;53.266;10.410;2024-02-26T09:30:27;100526.63;;;3.31;100.00
10510;BME280;5303;53.266;10.410;2024-02-26T09:32:27;100532.59;;;3.28;100.00
10510;BME280;5303;53.266;10.410;2024-02-26T09:34:27;100529.88;;;3.28;100.00
10510;BME280;5303;53.266;10.410;2024-02-26T09:36:29;100538.34;;;3.37;100.00
10510;BME280;5303;53.266;10.410;2024-02-26T09:38:29;100543.00;;;3.46;100.00
10510;BME280;5303;53.266;10.410;2024-02-26T09:40:30;100545.72;;;3.51;100.00
10510;BME280;5303;53.266;10.410;2024-02-26T09:42:31;100546.50;;;3.52;100.00
10510;BME280;5303;53.266;10.410;2024-02-26T09:44:35;100556.59;;;3.61;100.00
10510;BME280;5303;53.266;10.410;2024-02-26T09:46:38;100548.72;;;3.55;100.00
10510;BME280;5303;53.266;10.410;2024-02-26T09:48:39;100546.03;;;3.65;100.00
10510;BME280;5303;53.266;10.410;2024-02-26T09:50:40;100549.81;;;3.64;100.00
10510;BME280;5303;53.266;10.410;2024-02-26T09:52:41;100554.44;;;3.73;100.00
10510;BME280;5303;53.266;10.410;2024-02-26T09:54:42;100560.19;;;3.82;100.00
10510;BME280;5303;53.266;10.410;2024-02-26T09:56:49;100561.56;;;3.94;100.00
10510;BME280;5303;53.266;10.410;2024-02-26T09:58:50;100563.72;;;3.97;100.00
10510;BME280;5303;53.266;10.410;2024-02-26T10:00:56;100564.84;;;4.01;100.00
10510;BME280;5303;53.266;10.410;2024-02-26T10:03:03;100565.38;;;4.03;100.00
10510;BME280;5303;53.266;10.410;2024-02-26T10:05:05;100563.19;;;3.95;100.00
10510;BME280;5303;53.266;10.410;2024-02-26T10:07:11;100564.03;;;4.16;100.00
10510;BME280;5303;53.266;10.410;2024-02-26T10:09:12;100561.31;;;4.11;100.00
10510;BME280;5303;53.266;10.410;2024-02-26T10:11:14;100561.56;;;4.20;100.00
10510;BME280;5303;53.266;10.410;2024-02-26T10:13:14;100569.72;;;4.20;100.00
10510;BME280;5303;53.266;10.410;2024-02-26T10:15:15;100567.56;;;4.22;100.00
10510;BME280;5303;53.266;10.410;2024-02-26T10:17:15;100566.47;;;4.28;100.00
10510;BME280;5303;53.266;10.410;2024-02-26T10:19:25;100573.00;;;4.32;100.00
10510;BME280;5303;53.266;10.410;2024-02-26T10:21:27;100568.91;;;4.49;100.00
10510;BME280;5303;53.266;10.410;2024-02-26T10:23:28;100577.91;;;4.55;100.00
10510;BME280;5303;53.266;10.410;2024-02-26T10:25:28;100583.06;;;4.61;100.00
10510;BME280;5303;53.266;10.410;2024-02-26T10:27:28;100578.69;;;4.65;100.00
10510;BME280;5303;53.266;10.410;2024-02-26T10:29:29;100585.78;;;4.72;100.00
10510;BME280;5303;53.266;10.410;2024-02-26T10:31:29;100589.56;;;4.86;100.00